This is the latest recevied weather packets stored in our database for station/object VK3AGD-9. If no packets are shown the sender has not sent any weather packets the latest 10 day(s).
| Time | Temp. | Humidity | Pressure | Rain* | Wind** | Luminosity | Snow |
|---|---|---|---|---|---|---|---|
| 1787739364 | 8.89° C | 95% | - | 0 mm | - | - | - |
| 1787738500 | 8.33° C | 94% | - | 0 mm | - | - | - |
| 1787737540 | 8.89° C | 93% | - | 0 mm | - | - | - |
| 1787736676 | 8.89° C | 92% | - | 0 mm | - | - | - |
| 1787735813 | 8.89° C | 90% | - | 0 mm | - | - | - |
| 1787734852 | 9.44° C | 89% | - | 0 mm | - | - | - |
| 1787733988 | 9.44° C | 87% | - | 0 mm | - | - | - |
| 1787733028 | 10° C | 87% | - | 0 mm | - | - | - |
| 1787732164 | 10° C | 84% | - | 0 mm | - | - | - |
| 1787731300 | 10.56° C | 81% | - | 0 mm | - | - | - |
| 1787730341 | 11.67° C | 77% | - | 0 mm | - | - | - |
| 1787729478 | 12.22° C | 75% | - | 0 mm | - | - | - |
| 1787728612 | 12.22° C | 74% | - | 0 mm | - | - | - |
| 1787727653 | 12.78° C | 73% | - | 0 mm | - | - | - |
| 1787726788 | 12.78° C | 72% | - | 0 mm | - | - | - |
| 1787725831 | 12.78° C | 72% | - | 0 mm | - | - | - |
| 1787724964 | 13.33° C | 73% | - | 0 mm | - | - | - |
| 1787724100 | 12.78° C | 78% | - | 0 mm | - | - | - |
| 1787723140 | 12.22° C | 79% | - | 0 mm | - | - | - |
| 1787722276 | 12.22° C | 79% | - | 0 mm | - | - | - |
| 1787721412 | 12.22° C | 78% | - | 0 mm | - | - | - |
| 1787720452 | 12.22° C | 76% | - | 0 mm | - | - | - |
| 1787719588 | 12.78° C | 75% | - | 0 mm | - | - | - |
| 1787718628 | 12.78° C | 77% | - | 0 mm | - | - | - |
| 1787717764 | 12.22° C | 78% | - | 0 mm | - | - | - |
* Rain latest hour (hover to see other rain measurements)
** Current wind speed in m/s (hover to see current wind gust speed)